createdAt,value
2023-01-09T00:00:46.428Z,7.90
2023-01-09T00:03:13.633Z,8.00
2023-01-09T00:05:40.192Z,8.60
2023-01-09T00:08:07.879Z,8.20
2023-01-09T00:10:34.453Z,8.00
2023-01-09T00:13:00.937Z,8.00
2023-01-09T00:15:27.460Z,8.00
2023-01-09T00:17:56.688Z,8.60
2023-01-09T00:20:23.860Z,8.10
2023-01-09T00:22:50.385Z,8.10
2023-01-09T00:25:16.994Z,8.10
2023-01-09T00:27:43.508Z,8.00
2023-01-09T00:30:11.461Z,8.10
2023-01-09T00:32:38.023Z,8.10
2023-01-09T00:35:05.308Z,8.10
2023-01-09T00:37:32.448Z,8.10
2023-01-09T00:39:59.001Z,8.10
2023-01-09T00:42:30.566Z,8.10
2023-01-09T00:45:01.303Z,8.00
2023-01-09T00:47:31.935Z,8.00
2023-01-09T00:50:00.492Z,8.00
2023-01-09T00:52:29.310Z,7.90
2023-01-09T00:54:57.921Z,8.00
2023-01-09T00:57:24.518Z,7.90
2023-01-09T00:59:52.175Z,7.90
2023-01-09T01:02:18.992Z,7.80
2023-01-09T01:05:03.695Z,7.80
2023-01-09T01:07:38.900Z,7.80
2023-01-09T01:10:09.535Z,7.60
2023-01-09T01:12:36.320Z,7.60
2023-01-09T01:15:03.892Z,7.60
2023-01-09T01:17:30.419Z,7.50
2023-01-09T01:19:56.936Z,7.50
2023-01-09T01:22:23.426Z,8.10
2023-01-09T01:24:49.959Z,8.30
2023-01-09T01:27:17.141Z,7.60
2023-01-09T01:29:43.757Z,7.50
2023-01-09T01:32:11.163Z,8.20
2023-01-09T01:34:37.735Z,7.30
2023-01-09T01:37:04.331Z,7.30
2023-01-09T01:39:30.869Z,7.30
2023-01-09T01:41:59.775Z,7.20
2023-01-09T01:44:57.081Z,7.20
2023-01-09T01:47:28.278Z,7.10
2023-01-09T01:49:58.835Z,6.90
2023-01-09T01:52:25.793Z,6.90
2023-01-09T01:54:52.889Z,7.00
2023-01-09T01:57:19.791Z,6.90
2023-01-09T01:59:49.715Z,6.80
2023-01-09T02:02:19.468Z,7.00
2023-01-09T02:04:48.152Z,6.70
2023-01-09T02:07:14.693Z,6.70
2023-01-09T02:09:43.686Z,6.70
2023-01-09T02:12:16.064Z,6.70
2023-01-09T02:14:42.821Z,6.60
2023-01-09T02:17:20.335Z,6.60
2023-01-09T02:20:21.347Z,6.50
2023-01-09T02:23:00.875Z,6.40
2023-01-09T02:25:54.615Z,6.50
2023-01-09T02:28:51.857Z,6.20
2023-01-09T02:31:25.331Z,6.40
2023-01-09T02:34:01.718Z,6.20
2023-01-09T02:36:35.890Z,6.50
2023-01-09T02:39:15.370Z,6.20
2023-01-09T02:41:48.163Z,6.20
2023-01-09T02:44:21.470Z,6.10
2023-01-09T02:46:59.289Z,6.40
2023-01-09T02:49:26.732Z,6.00
2023-01-09T02:52:00.559Z,6.00
2023-01-09T02:54:42.294Z,5.90
2023-01-09T02:57:24.735Z,6.10
2023-01-09T03:00:02.498Z,6.10
2023-01-09T03:02:41.254Z,5.80
2023-01-09T03:05:15.165Z,6.00
2023-01-09T03:07:47.440Z,6.60
2023-01-09T03:10:20.200Z,5.90
2023-01-09T03:12:50.689Z,5.80
2023-01-09T03:15:20.339Z,5.90
2023-01-09T03:17:50.065Z,6.70
2023-01-09T03:20:20.802Z,6.00
2023-01-09T03:22:53.902Z,5.70
2023-01-09T03:25:20.458Z,6.00
2023-01-09T03:27:47.049Z,5.80
2023-01-09T03:30:14.076Z,5.70
2023-01-09T03:32:40.630Z,5.70
2023-01-09T03:35:08.635Z,5.60
2023-01-09T03:37:35.154Z,5.70
2023-01-09T03:40:01.737Z,5.70
2023-01-09T03:42:28.355Z,5.70
2023-01-09T03:44:54.872Z,5.60
2023-01-09T03:47:21.378Z,5.80
2023-01-09T03:49:47.865Z,5.70
2023-01-09T03:52:14.988Z,6.00
2023-01-09T03:54:41.528Z,5.60
2023-01-09T03:57:08.027Z,5.60
2023-01-09T03:59:34.548Z,5.70
2023-01-09T04:02:03.619Z,5.80
2023-01-09T04:04:30.567Z,5.70
2023-01-09T04:06:57.217Z,5.90
2023-01-09T04:09:24.414Z,5.60
2023-01-09T04:11:50.937Z,5.60
2023-01-09T04:14:17.516Z,5.60
2023-01-09T04:16:44.097Z,5.60
2023-01-09T04:19:10.623Z,5.60
2023-01-09T04:21:37.098Z,5.60
2023-01-09T04:24:04.350Z,5.50
2023-01-09T04:26:31.491Z,5.50
2023-01-09T04:28:58.201Z,5.50
2023-01-09T04:31:24.784Z,5.50
2023-01-09T04:33:51.394Z,5.60
2023-01-09T04:36:17.971Z,5.50
2023-01-09T04:38:44.474Z,5.70
2023-01-09T11:31:52.844Z,8.50
2023-01-09T11:34:22.636Z,8.50
2023-01-09T11:36:51.121Z,8.40
2023-01-09T11:39:23.261Z,8.40
2023-01-09T11:41:53.668Z,8.50
2023-01-09T11:44:21.078Z,8.30
2023-01-09T11:46:47.629Z,8.60
2023-01-09T11:49:23.241Z,8.30
2023-01-09T11:52:14.658Z,8.40
2023-01-09T11:54:47.016Z,8.50
2023-01-09T11:57:13.629Z,8.50
2023-01-09T11:59:40.173Z,8.70
2023-01-09T12:02:31.540Z,8.60
2023-01-09T12:05:06.893Z,8.70
2023-01-09T12:07:57.091Z,9.50
2023-01-09T12:10:40.791Z,8.80
2023-01-09T12:13:21.990Z,8.80
2023-01-09T12:15:58.813Z,8.90
2023-01-09T12:18:38.330Z,8.80
2023-01-09T12:21:22.680Z,8.70
2023-01-09T12:24:02.873Z,8.70
2023-01-09T12:26:32.379Z,8.80
2023-01-09T12:29:20.021Z,8.50
2023-01-09T12:32:03.197Z,8.60
2023-01-09T12:34:44.443Z,8.60
2023-01-09T12:37:34.876Z,8.50
2023-01-09T12:40:16.594Z,8.60
2023-01-09T16:00:41.310Z,8.10
2023-01-09T16:03:18.052Z,8.10
2023-01-09T16:05:47.678Z,8.50
2023-01-09T16:08:23.241Z,8.00
2023-01-09T16:10:52.159Z,8.00
2023-01-09T16:13:21.807Z,8.00
2023-01-09T16:15:48.964Z,8.10
2023-01-09T16:18:36.726Z,8.00
2023-01-09T16:21:19.726Z,8.00
2023-01-09T16:23:52.884Z,8.00
2023-01-09T16:26:24.453Z,7.90
2023-01-09T16:29:32.929Z,7.90
2023-01-09T16:32:00.250Z,8.10
2023-01-09T16:34:27.973Z,7.90
2023-01-09T16:36:54.710Z,7.80
2023-01-09T16:39:33.480Z,7.70
2023-01-09T16:42:18.634Z,7.90
2023-01-09T16:44:45.175Z,7.70
2023-01-09T16:47:11.934Z,7.80
2023-01-09T16:49:39.290Z,7.70
2023-01-09T16:52:15.127Z,7.80
2023-01-09T16:54:43.484Z,7.70
2023-01-09T16:57:15.160Z,7.80
2023-01-09T16:59:41.699Z,7.90
2023-01-09T17:02:16.951Z,7.70
2023-01-09T17:04:44.685Z,7.80
2023-01-09T17:07:13.366Z,7.60
2023-01-09T17:09:39.948Z,7.60
2023-01-09T17:12:10.675Z,7.70
2023-01-09T17:14:37.174Z,7.40
2023-01-09T17:17:08.101Z,7.40
2023-01-09T17:19:35.007Z,7.80
2023-01-09T17:22:02.134Z,7.30
2023-01-09T17:24:46.849Z,7.60
2023-01-09T17:27:31.699Z,7.20
2023-01-09T17:29:59.301Z,7.20
2023-01-09T17:32:25.929Z,7.10
2023-01-09T17:34:58.211Z,7.00
2023-01-09T17:37:25.370Z,6.90
2023-01-09T17:39:51.901Z,6.80
2023-01-09T17:42:18.458Z,6.80
2023-01-09T17:44:44.967Z,6.70
2023-01-09T17:47:14.482Z,6.80
2023-01-09T17:49:41.598Z,6.60
2023-01-09T17:52:08.134Z,6.60
2023-01-09T17:54:35.288Z,6.50
2023-01-09T17:57:02.212Z,6.70
2023-01-09T17:59:29.462Z,6.40
2023-01-09T18:01:56.576Z,6.50
2023-01-09T18:04:23.135Z,6.50
2023-01-09T18:06:49.721Z,6.40
2023-01-09T18:09:17.641Z,6.40
2023-01-09T18:11:44.818Z,6.50
2023-01-09T18:14:13.512Z,6.50
2023-01-09T18:16:40.613Z,6.80
2023-01-09T18:19:07.220Z,6.70
2023-01-09T18:21:33.756Z,6.80
2023-01-09T18:24:01.675Z,6.80
2023-01-09T18:26:28.251Z,6.90
2023-01-09T18:28:56.907Z,6.90
2023-01-09T18:31:27.601Z,7.00
2023-01-09T18:33:56.013Z,7.00
2023-01-09T18:36:28.441Z,7.10
2023-01-09T18:38:56.045Z,7.00
2023-01-09T18:41:23.006Z,7.30
2023-01-09T18:43:49.725Z,7.20
2023-01-09T18:46:19.826Z,7.20
2023-01-09T18:48:49.853Z,7.20
2023-01-09T18:51:16.380Z,7.10
2023-01-09T18:53:49.069Z,7.20
2023-01-09T18:56:15.697Z,7.20
2023-01-09T18:58:42.408Z,7.60
2023-01-09T19:01:08.984Z,7.40
2023-01-09T19:03:36.243Z,7.20
2023-01-09T19:06:06.041Z,7.50
2023-01-09T19:08:34.347Z,7.20
2023-01-09T19:11:01.489Z,7.20
2023-01-09T19:13:30.344Z,7.30
2023-01-09T19:15:57.511Z,7.30
2023-01-09T19:18:24.625Z,7.20
2023-01-09T19:20:52.370Z,7.20
2023-01-09T19:23:19.768Z,7.20
2023-01-09T19:25:46.626Z,7.20
2023-01-09T19:28:13.620Z,7.30
2023-01-09T19:30:40.281Z,7.30
2023-01-09T19:33:07.083Z,7.40
2023-01-09T19:35:34.022Z,7.20
2023-01-09T19:38:01.209Z,7.20
2023-01-09T19:40:27.765Z,7.20
2023-01-09T19:42:55.553Z,7.30
2023-01-09T19:45:22.601Z,7.20
2023-01-09T19:47:49.557Z,7.20
2023-01-09T19:50:17.140Z,7.10
2023-01-09T19:52:44.173Z,7.20
2023-01-09T19:55:13.088Z,7.20
2023-01-09T19:57:39.985Z,7.30
2023-01-09T20:00:08.153Z,7.20
2023-01-09T20:02:39.746Z,7.20
2023-01-09T20:05:07.222Z,7.20
2023-01-09T20:07:34.295Z,7.10
2023-01-09T20:10:01.339Z,7.00
2023-01-09T20:12:28.499Z,7.00
2023-01-09T20:14:55.042Z,6.90
2023-01-09T20:17:21.634Z,6.90
2023-01-09T20:19:48.177Z,6.80
2023-01-09T20:22:14.701Z,6.70
2023-01-09T20:24:41.231Z,6.60
2023-01-09T20:27:07.746Z,6.60
2023-01-09T20:29:34.876Z,6.50
2023-01-09T20:32:04.703Z,6.70
2023-01-09T20:34:31.233Z,6.50
2023-01-09T20:36:57.824Z,6.50
2023-01-09T20:39:24.325Z,6.60
2023-01-09T20:41:50.856Z,6.40
2023-01-09T20:44:17.368Z,6.40
2023-01-09T20:46:47.063Z,6.40
2023-01-09T20:49:17.199Z,6.60
2023-01-09T20:51:45.976Z,6.70
2023-01-09T20:54:12.960Z,6.50
2023-01-09T20:56:45.249Z,6.50
2023-01-09T20:59:13.705Z,6.80
2023-01-09T21:01:40.694Z,6.50
2023-01-09T21:04:08.360Z,6.60
2023-01-09T21:06:36.020Z,6.60
2023-01-09T21:09:02.794Z,6.70
2023-01-09T21:11:29.275Z,6.50
2023-01-09T21:13:56.551Z,6.40
2023-01-09T21:16:23.871Z,6.50
2023-01-09T21:18:51.567Z,6.40
2023-01-09T21:21:21.009Z,6.50
2023-01-09T21:23:50.988Z,6.40
2023-01-09T21:26:21.419Z,6.40
2023-01-09T21:28:49.257Z,6.50
2023-01-09T21:31:19.491Z,6.30
2023-01-09T21:33:47.179Z,6.20
2023-01-09T21:36:15.054Z,6.20
2023-01-09T21:38:42.304Z,6.60
2023-01-09T21:41:27.678Z,6.10
2023-01-09T21:44:12.662Z,6.60
2023-01-09T21:46:51.370Z,6.10
2023-01-09T21:49:18.658Z,6.10
2023-01-09T21:51:45.712Z,6.20
2023-01-09T21:54:13.007Z,6.00
2023-01-09T21:56:39.677Z,5.90
2023-01-09T21:59:06.645Z,5.90
2023-01-09T22:01:33.234Z,5.80
2023-01-09T22:03:59.895Z,6.00
2023-01-09T22:06:27.592Z,6.30
2023-01-09T22:08:55.018Z,5.60
2023-01-09T22:11:22.271Z,5.60
2023-01-09T22:13:49.731Z,5.50
2023-01-09T22:16:17.113Z,5.70
2023-01-09T22:18:43.708Z,6.00
2023-01-09T22:21:10.331Z,5.90
2023-01-09T22:23:36.945Z,5.60
2023-01-09T22:26:08.050Z,5.50
2023-01-09T22:28:35.198Z,5.50
2023-01-09T22:31:01.817Z,5.50
2023-01-09T22:33:28.388Z,5.60
2023-01-09T22:36:05.315Z,5.60
2023-01-09T22:38:31.806Z,5.40
2023-01-09T22:40:58.373Z,5.50
2023-01-09T22:43:24.925Z,5.30
2023-01-09T22:45:52.113Z,5.40
2023-01-09T22:48:18.774Z,5.30
2023-01-09T22:50:45.271Z,5.40
2023-01-09T22:53:11.793Z,5.50
2023-01-09T22:55:38.313Z,5.30
2023-01-09T22:58:04.809Z,5.20
2023-01-09T23:00:31.758Z,5.30
2023-01-09T23:02:58.932Z,5.40
2023-01-09T23:05:25.504Z,5.20
2023-01-09T23:07:52.051Z,5.20
2023-01-09T23:10:18.787Z,5.20
2023-01-09T23:12:47.573Z,5.20
2023-01-09T23:15:14.213Z,5.40
2023-01-09T23:17:40.743Z,5.20
2023-01-09T23:20:09.695Z,6.00
2023-01-09T23:22:36.197Z,5.30
2023-01-09T23:25:02.796Z,5.40
2023-01-09T23:27:29.343Z,5.20
2023-01-09T23:29:55.826Z,5.20
2023-01-09T23:32:22.330Z,5.40
2023-01-09T23:34:49.043Z,6.10
2023-01-09T23:37:16.230Z,5.60
2023-01-09T23:39:42.726Z,5.20
2023-01-09T23:42:29.042Z,6.20
2023-01-09T23:44:55.581Z,5.20
2023-01-09T23:47:22.137Z,5.30
2023-01-09T23:49:48.644Z,5.50
2023-01-09T23:52:15.790Z,5.30
2023-01-09T23:54:42.323Z,5.50
2023-01-09T23:57:08.896Z,5.50
2023-01-09T23:59:35.423Z,5.50
